Time;durP1;ratioP1;P1;durP2;ratioP2;P2;SDS_P1;SDS_P2;PMS_P1;PMS_P2;Temp;Humidity;BMP_temperature;BMP_pressure;BME280_temperature;BME280_humidity;BME280_pressure;Samples;Min_cycle;Max_cycle;Signal;HPM_P1;HPM_P2
2022/01/26 00:07:22;;;;;;;3.22;1.67;;;-0.70;4.60;;;-1.07;89.55;99495.69;5023180;28;130198;-71
2022/01/26 00:09:51;;;;;;;5.80;2.35;;;-0.70;7.20;;;-0.96;88.54;99492.16;5022118;28;119605;-71
2022/01/26 00:12:21;;;;;;;6.05;2.15;;;-0.70;4.70;;;-1.16;88.48;99498.69;5021321;28;115680;-71
2022/01/26 00:14:50;;;;;;;6.22;2.00;;;-0.70;4.00;;;-1.07;88.72;99496.47;5021622;28;130416;-72
2022/01/26 00:17:19;;;;;;;6.28;2.30;;;-0.70;5.10;;;-1.15;88.88;99497.66;5020520;28;129517;-71
2022/01/26 00:19:53;;;;;;;7.82;2.42;;;-0.70;5.40;;;-1.11;89.12;99501.47;5022228;28;119739;-72
2022/01/26 00:22:40;;;;;;;6.35;2.80;;;-0.80;7.50;;;-1.06;89.81;99507.94;5022354;27;115092;-71
2022/01/26 00:25:24;;;;;;;7.88;2.80;;;-0.80;10.60;;;-1.25;90.83;99504.59;5023415;28;129774;-71
2022/01/26 00:28:07;;;;;;;8.30;2.67;;;-0.80;13.60;;;-1.26;91.40;99503.81;5015030;28;129752;-71
2022/01/26 00:38:58;;;;;;;5.82;2.17;;;-0.80;14.70;;;-1.32;92.11;99510.06;5018391;28;129878;-71
2022/01/26 00:41:34;;;;;;;6.75;2.28;;;-0.80;16.10;;;-1.23;92.45;99508.66;5020974;28;118813;-71
2022/01/26 00:44:06;;;;;;;6.03;1.90;;;-0.80;17.00;;;-1.36;90.79;99514.22;5022485;28;114898;-71
2022/01/26 00:46:37;;;;;;;8.88;2.33;;;-0.80;9.80;;;-1.28;90.94;99516.53;5022544;28;129806;-71
2022/01/26 00:49:06;;;;;;;5.18;1.85;;;-0.80;10.10;;;-1.24;89.48;99523.00;5021342;28;130339;-71
2022/01/26 00:51:35;;;;;;;6.90;2.10;;;-0.80;6.60;;;-1.40;87.45;99524.53;5022872;28;118711;-71
2022/01/26 00:54:06;;;;;;;7.85;2.03;;;-0.90;1.00;;;-1.47;87.33;99529.97;5021766;28;115624;-71
2022/01/26 00:56:34;;;;;;;6.97;2.42;;;-0.80;1.00;;;-1.30;87.71;99529.28;5020990;28;130131;-72
2022/01/26 00:59:05;;;;;;;5.53;1.73;;;-0.80;1.00;;;-1.42;88.12;99536.44;5023420;28;131012;-71
2022/01/26 01:01:34;;;;;;;4.80;1.85;;;-0.90;1.00;;;-1.41;88.55;99532.75;5023385;28;118919;-71
2022/01/26 01:04:03;;;;;;;8.63;1.90;;;-0.90;1.60;;;-1.57;88.56;99539.56;5021799;28;114956;-71
2022/01/26 01:06:39;;;;;;;5.78;2.25;;;-0.90;1.40;;;-1.54;89.38;99531.09;5020324;28;130168;-71
2022/01/26 01:09:07;;;;;;;5.40;1.90;;;-0.90;3.70;;;-1.58;89.73;99528.09;5021907;28;129663;-71
2022/01/26 01:11:36;;;;;;;5.10;2.15;;;-0.90;4.40;;;-1.42;89.11;99537.25;5021033;28;119301;-71
2022/01/26 01:14:06;;;;;;;5.40;1.70;;;-0.90;3.80;;;-1.49;89.33;99534.72;5023410;28;115146;-72
2022/01/26 01:16:35;;;;;;;5.97;1.80;;;-0.90;5.10;;;-1.53;88.61;99540.72;5020866;28;130612;-72
2022/01/26 01:19:08;;;;;;;5.07;1.80;;;-1.00;2.70;;;-1.63;87.13;99536.78;5021012;28;130574;-72
2022/01/26 01:27:45;;;;;;;5.00;1.75;;;-1.00;2.00;;;-1.65;87.84;99543.41;5019857;28;129091;-71
2022/01/26 01:30:27;;;;;;;3.58;1.25;;;-1.10;1.00;;;-1.68;87.26;99533.22;5021728;28;129749;-71
2022/01/26 01:33:05;;;;;;;5.53;1.30;;;-1.10;1.00;;;-1.83;86.44;99536.31;5018031;28;119114;-71
2022/01/26 01:35:36;;;;;;;4.05;1.20;;;-1.10;1.00;;;-1.90;85.57;99533.75;5021612;28;114435;-70
2022/01/26 01:38:16;;;;;;;5.60;1.50;;;-1.10;1.00;;;-1.93;85.70;99533.38;5020648;28;130146;-70
2022/01/26 01:40:48;;;;;;;2.95;1.10;;;-1.10;1.00;;;-1.84;85.76;99524.84;5023821;28;130863;-71
2022/01/26 01:43:21;;;;;;;6.47;1.65;;;-1.20;1.00;;;-1.88;86.56;99534.31;5001206;28;117714;-71
2022/01/26 01:45:55;;;;;;;5.80;1.40;;;-1.20;1.00;;;-1.86;87.86;99529.56;5020007;28;113863;-71
2022/01/26 01:48:28;;;;;;;3.95;1.40;;;-1.20;1.00;;;-1.85;87.57;99528.53;5024471;28;129844;-71
2022/01/26 01:51:00;;;;;;;4.78;1.40;;;-1.20;1.00;;;-1.83;87.15;99523.81;5025798;27;129161;-71
2022/01/26 01:53:34;;;;;;;6.38;2.00;;;-1.30;1.00;;;-1.83;87.46;99521.13;5026130;28;117702;-71
2022/01/26 01:56:03;;;;;;;3.08;1.50;;;-1.30;1.00;;;-1.90;87.02;99524.94;5026590;28;113923;-71
2022/01/26 01:58:32;;;;;;;5.90;1.73;;;-1.30;1.00;;;-1.90;88.13;99523.13;5023705;28;130807;-72
2022/01/26 02:01:02;;;;;;;4.43;1.80;;;-1.30;1.00;;;-1.89;87.99;99519.41;5025477;28;129258;-72
2022/01/26 02:03:31;;;;;;;2.65;1.20;;;-1.30;1.00;;;-1.89;88.54;99516.72;5025224;28;118840;-72
2022/01/26 02:06:00;;;;;;;7.18;1.80;;;-1.40;1.80;;;-2.01;89.25;99519.38;5026466;28;114840;-71
2022/01/26 02:08:28;;;;;;;7.00;1.80;;;-1.40;3.80;;;-1.97;89.88;99518.94;5023245;28;130285;-71
2022/01/26 02:10:57;;;;;;;6.22;1.80;;;-1.40;6.80;;;-1.75;89.81;99524.50;5024220;28;129731;-72
2022/01/26 02:13:29;;;;;;;7.32;1.52;;;-1.40;7.90;;;-1.79;89.74;99515.34;5024684;28;119228;-72
2022/01/26 02:16:07;;;;;;;7.80;2.00;;;-1.40;7.70;;;-1.74;89.62;99523.47;5024563;28;116332;-72
2022/01/26 02:18:50;;;;;;;;;;;-1.40;9.40;;;-1.93;90.08;99531.53;5025040;28;130141;-72
2022/01/26 02:22:01;;;;;;;8.90;2.20;;;-1.40;8.40;;;-1.84;89.83;99524.03;5023130;28;130099;-72
2022/01/26 02:49:53;;;;;;;4.22;2.20;;;-1.70;8.10;;;-2.02;89.36;99548.88;5023847;28;114973;-72
2022/01/26 02:55:32;;;;;;;4.60;1.60;;;-1.70;5.10;;;-2.20;89.56;99542.59;5023377;28;129626;-72
2022/01/26 03:01:01;;;;;;;3.70;1.85;;;-1.60;7.90;;;-2.08;89.20;99549.78;5019365;28;114867;-72
2022/01/26 03:03:35;;;;;;;6.63;1.63;;;-1.70;8.90;;;-2.10;89.41;99549.19;4984651;28;128726;-72
2022/01/26 03:06:07;;;;;;;4.93;1.70;;;-1.70;9.70;;;-1.92;88.98;99549.09;4985015;28;128481;-73
2022/01/26 03:08:40;;;;;;;4.80;1.55;;;-1.70;9.50;;;-1.75;88.44;99553.78;4983404;28;118650;-72
2022/01/26 03:11:10;;;;;;;8.70;2.22;;;-1.70;10.10;;;-2.20;88.70;99555.88;4983358;28;116687;-72
2022/01/26 03:13:44;;;;;;;4.93;1.90;;;-1.80;7.40;;;-2.04;88.75;99557.06;4983176;28;130754;-72
2022/01/26 03:16:22;;;;;;;5.43;1.88;;;-1.80;8.40;;;-2.23;88.68;99553.66;4982209;28;129645;-72
2022/01/26 03:18:57;;;;;;;6.30;1.63;;;-1.80;6.80;;;-2.26;89.15;99563.94;4977223;28;119016;-72
2022/01/26 03:21:33;;;;;;;4.50;1.90;;;-1.80;7.20;;;-2.18;89.44;99561.78;4982014;28;115145;-71
2022/01/26 03:29:54;;;;;;;;;;;-1.90;14.00;;;-2.41;91.31;99570.47;4987648;28;118624;-72
2022/01/26 03:35:30;;;;;;;6.65;1.75;;;-2.00;16.10;;;-2.63;91.46;99575.44;4903556;28;129769;-72
2022/01/26 03:37:59;;;;;;;10.80;2.83;;;-2.10;13.60;;;-2.53;91.29;99570.38;4973562;28;129626;-72
2022/01/26 03:40:34;;;;;;;3.25;1.50;;;-2.10;13.80;;;-2.53;90.88;99570.38;4984832;28;118843;-72
2022/01/26 03:43:05;;;;;;;6.60;2.40;;;-2.10;13.50;;;-2.45;90.29;99576.44;4986319;28;114935;-73
2022/01/26 03:45:34;;;;;;;5.47;2.13;;;-2.20;13.10;;;-2.55;90.19;99572.47;4967527;28;129865;-72
2022/01/26 03:48:02;;;;;;;6.63;2.35;;;-2.20;12.90;;;-2.63;90.35;99575.44;4983296;28;130013;-72
2022/01/26 03:50:31;;;;;;;7.63;3.10;;;-2.30;12.90;;;-2.54;90.20;99576.75;4986040;28;119419;-73
2022/01/26 03:53:00;;;;;;;8.63;3.58;;;-2.20;13.00;;;-2.50;89.73;99574.47;4986185;28;113735;-73
2022/01/26 03:55:28;;;;;;;5.53;3.20;;;-2.30;12.30;;;-2.67;89.53;99576.91;4983585;28;129824;-73
2022/01/26 03:57:57;;;;;;;12.55;6.35;;;-2.30;8.10;;;-2.84;88.88;99575.88;4983567;28;130425;-73
2022/01/26 04:00:27;;;;;;;20.02;8.32;;;-2.30;3.20;;;-2.83;88.87;99577.53;4983666;28;119170;-73
2022/01/26 04:02:55;;;;;;;13.48;5.75;;;-2.40;4.20;;;-2.94;89.42;99579.88;5019046;28;115625;-73
2022/01/26 04:05:25;;;;;;;11.68;3.40;;;-2.50;5.40;;;-2.82;89.02;99581.78;5023936;28;130790;-73
2022/01/26 04:07:58;;;;;;;6.07;2.60;;;-2.50;6.60;;;-2.86;89.70;99575.31;5023389;28;130153;-73
2022/01/26 04:10:37;;;;;;;8.43;2.38;;;-2.60;7.60;;;-2.81;88.83;99578.91;5025488;28;118919;-73
2022/01/26 04:13:06;;;;;;;4.15;2.10;;;-2.60;9.60;;;-2.85;89.10;99572.44;5025418;28;115360;-73
2022/01/26 04:15:37;;;;;;;6.65;2.03;;;-2.70;10.30;;;-3.01;89.07;99579.13;5023522;28;129771;-73
2022/01/26 04:18:10;;;;;;;6.70;2.00;;;-2.70;10.80;;;-3.11;89.96;99578.81;5023452;28;130334;-72
2022/01/26 04:20:42;;;;;;;7.50;2.28;;;-2.90;12.40;;;-3.27;89.74;99578.34;5025144;28;118731;-73
2022/01/26 04:23:16;;;;;;;10.63;2.03;;;-3.00;13.80;;;-3.19;89.93;99576.47;5025376;28;114837;-73
2022/01/26 04:25:47;;;;;;;6.13;1.92;;;-3.20;13.80;;;-3.27;89.68;99566.94;5024329;28;129658;-73
2022/01/26 04:28:20;;;;;;;4.50;2.10;;;-3.30;17.20;;;-3.40;89.99;99575.00;5023606;28;130417;-73
2022/01/26 04:30:51;;;;;;;6.03;2.20;;;-3.40;20.50;;;-3.45;90.25;99575.66;5024311;28;119323;-73
2022/01/26 04:33:20;;;;;;;5.65;2.45;;;-3.50;20.60;;;-3.44;90.48;99569.34;5026670;28;115142;-74
2022/01/26 04:35:49;;;;;;;5.88;2.90;;;-3.60;22.60;;;-3.54;91.39;99569.81;5024501;28;130026;-74
2022/01/26 04:38:22;;;;;;;7.25;3.05;;;-3.60;26.10;;;-3.71;91.54;99574.88;5026074;28;129826;-73
2022/01/26 04:41:02;;;;;;;8.32;3.15;;;-3.80;28.30;;;-3.77;91.94;99573.06;5023861;28;118424;-73
2022/01/26 04:43:35;;;;;;;7.55;3.03;;;-3.90;29.20;;;-3.76;90.92;99568.56;5025207;28;115318;-74
2022/01/26 04:46:06;;;;;;;6.88;3.15;;;-4.00;28.60;;;-3.97;91.96;99571.38;5009397;28;129152;-75
2022/01/26 04:48:35;;;;;;;14.23;5.70;;;-4.20;35.50;;;-4.05;91.95;99562.84;5024183;28;130285;-73
2022/01/26 04:51:03;;;;;;;9.55;4.68;;;-4.30;36.30;;;-4.16;91.95;99556.38;5026659;28;118761;-70
2022/01/26 04:53:32;;;;;;;20.85;6.38;;;-4.40;37.90;;;-4.28;92.43;99552.81;5026076;28;115161;-70
2022/01/26 04:56:00;;;;;;;14.57;5.53;;;-4.60;38.20;;;-4.45;93.18;99549.84;5023386;28;130500;-76
2022/01/26 04:58:29;;;;;;;13.80;5.05;;;-4.70;41.70;;;-4.57;93.22;99549.69;5025059;28;129626;-76
2022/01/26 05:00:57;;;;;;;11.43;3.75;;;-4.80;46.30;;;-4.60;94.30;99552.75;5025089;28;118678;-76
2022/01/26 05:03:28;;;;;;;8.68;3.60;;;-4.80;48.40;;;-4.65;93.58;99552.59;5027118;28;113770;-76
2022/01/26 05:05:58;;;;;;;9.50;3.63;;;-5.00;49.30;;;-4.73;92.61;99551.78;5026608;28;129661;-75
2022/01/26 05:08:28;;;;;;;7.22;2.55;;;-5.20;48.80;;;-4.80;92.88;99551.00;5009734;28;128965;-75
2022/01/26 05:10:57;;;;;;;6.65;2.92;;;-5.30;50.60;;;-4.79;92.75;99557.91;5026970;28;118744;-75
2022/01/26 05:13:26;;;;;;;12.10;3.80;;;-5.30;51.40;;;-4.81;92.53;99567.13;5027579;28;114850;-75
2022/01/26 05:15:54;;;;;;;16.33;8.52;;;-5.40;53.50;;;-4.77;92.74;99560.34;5027184;28;130848;-75
2022/01/26 05:18:24;;;;;;;15.32;7.32;;;-5.30;56.70;;;-4.70;93.70;99572.56;5024470;28;129690;-76
2022/01/26 05:20:53;;;;;;;11.55;6.63;;;-5.30;60.70;;;-4.61;93.91;99569.66;5024738;28;119463;-75
2022/01/26 05:23:22;;;;;;;16.42;7.75;;;-5.10;65.90;;;-4.49;93.55;99567.97;5023854;28;115075;-76
2022/01/26 05:25:51;;;;;;;14.07;6.95;;;-5.00;72.10;;;-4.37;93.81;99566.28;5022942;28;130111;-76
2022/01/26 05:28:20;;;;;;;12.10;6.45;;;-4.90;74.80;;;-4.26;94.05;99571.94;5022986;28;130177;-75
2022/01/26 05:30:49;;;;;;;16.50;8.45;;;-4.80;75.40;;;-4.29;93.57;99567.06;5023838;28;118852;-76
2022/01/26 05:33:17;;;;;;;18.88;8.50;;;-4.80;75.30;;;-4.12;93.30;99573.50;5025100;28;115153;-76
2022/01/26 05:35:45;;;;;;;16.10;7.82;;;-4.70;78.00;;;-3.95;93.28;99571.16;5026198;28;130007;-76
2022/01/26 05:38:15;;;;;;;11.60;6.82;;;-4.60;79.80;;;-3.81;92.93;99575.31;5025915;28;129361;-76
2022/01/26 05:40:44;;;;;;;17.98;9.07;;;-4.50;82.00;;;-3.68;92.32;99573.59;5026220;28;118077;-75
2022/01/26 05:43:14;;;;;;;13.30;5.35;;;-4.40;82.30;;;-3.63;92.65;99568.44;5024680;28;115667;-76
2022/01/26 05:45:47;;;;;;;7.95;4.05;;;-4.30;84.10;;;-3.49;93.02;99571.81;5024300;28;130493;-76
2022/01/26 05:48:15;;;;;;;9.88;3.35;;;-4.10;86.30;;;-3.56;94.27;99573.72;5022773;28;129569;-77
2022/01/26 05:50:51;;;;;;;12.15;3.30;;;-3.90;84.30;;;-3.50;93.96;99575.50;5024436;28;118999;-76
2022/01/26 05:53:21;;;;;;;10.90;4.47;;;-3.70;79.70;;;-3.25;93.42;99581.59;5026407;28;114914;-76
2022/01/26 05:55:53;;;;;;;15.25;6.15;;;-3.60;76.60;;;-3.14;93.28;99581.91;5022119;28;130131;-77
2022/01/26 05:58:22;;;;;;;13.60;6.78;;;-3.60;73.20;;;-3.05;92.79;99588.56;5026174;28;129602;-76
2022/01/26 06:00:51;;;;;;;16.48;7.90;;;-3.60;70.60;;;-3.19;92.57;99587.09;5024190;28;119428;-77
2022/01/26 06:03:19;;;;;;;21.27;9.88;;;-3.60;65.60;;;-3.17;92.77;99580.50;5024423;28;114975;-75
2022/01/26 06:05:47;;;;;;;23.17;9.82;;;-3.70;65.10;;;-2.99;92.09;99579.72;5023420;28;130034;-75
2022/01/26 06:08:16;;;;;;;22.15;10.13;;;-3.60;66.40;;;-3.34;93.47;99585.56;5023445;28;129989;-76
2022/01/26 06:10:46;;;;;;;23.13;9.45;;;-3.70;60.70;;;-3.23;93.39;99581.38;5022309;28;119128;-75
2022/01/26 06:13:14;;;;;;;25.88;13.75;;;-3.60;61.50;;;-3.28;92.86;99584.69;5025440;28;114203;-75
2022/01/26 06:15:44;;;;;;;20.70;9.10;;;-3.60;57.20;;;-3.19;93.08;99587.88;5025482;28;130197;-76
2022/01/26 06:18:13;;;;;;;23.95;10.55;;;-3.50;59.20;;;-2.99;92.96;99586.88;5025044;28;128669;-77
2022/01/26 06:20:42;;;;;;;24.20;10.20;;;-3.40;59.00;;;-2.91;92.53;99590.06;5025950;28;117100;-77
2022/01/26 06:23:12;;;;;;;18.35;7.68;;;-3.40;57.40;;;-3.29;92.96;99596.34;5023823;28;116722;-76
2022/01/26 06:25:40;;;;;;;17.83;7.57;;;-3.40;48.30;;;-3.14;93.54;99589.88;5023956;28;130416;-77
2022/01/26 06:28:13;;;;;;;16.75;7.60;;;-3.30;49.10;;;-3.31;93.35;99576.34;5029027;28;129569;-77
2022/01/26 06:30:47;;;;;;;20.70;9.60;;;-3.30;40.60;;;-3.16;93.44;99584.00;5029561;28;118742;-76
2022/01/26 06:33:16;;;;;;;17.67;8.25;;;-3.30;41.20;;;-3.11;92.13;99578.81;5027700;28;115713;-76
2022/01/26 06:35:45;;;;;;;20.67;9.75;;;-3.20;37.30;;;-3.21;92.68;99579.34;5027101;28;129830;-77
2022/01/26 06:38:16;;;;;;;22.67;11.10;;;-3.20;33.50;;;-2.97;92.27;99582.97;5027108;28;129416;-76
2022/01/26 06:40:44;;;;;;;21.48;10.70;;;-3.20;34.10;;;-3.01;91.61;99579.13;5027012;28;118510;-76
2022/01/26 06:43:15;;;;;;;20.33;11.38;;;-3.10;33.00;;;-2.54;90.43;99578.59;5012377;28;114599;-77
2022/01/26 06:45:48;;;;;;;14.90;7.13;;;-3.00;35.90;;;-2.35;89.45;99576.75;5026677;28;130081;-75
2022/01/26 06:51:14;;;;;;;15.50;8.18;;;-2.80;35.10;;;-2.63;88.86;99575.44;4935729;28;118668;-76
2022/01/26 06:53:43;;;;;;;19.60;8.95;;;-3.00;25.00;;;-2.49;88.49;99577.91;5015335;27;115163;-78
2022/01/26 06:56:13;;;;;;;19.13;8.30;;;-2.90;23.90;;;-2.49;88.26;99581.41;5026617;28;129879;-76
2022/01/26 06:58:43;;;;;;;19.08;8.93;;;-2.90;23.70;;;-2.28;88.21;99582.75;5026383;28;129958;-76
2022/01/26 07:01:12;;;;;;;13.23;6.95;;;-2.80;23.60;;;-2.31;87.93;99583.22;5028138;28;118770;-75
2022/01/26 07:03:40;;;;;;;12.07;6.88;;;-2.80;21.50;;;-2.47;87.90;99574.00;5027331;28;115144;-75
2022/01/26 07:06:08;;;;;;;21.33;10.65;;;-2.80;20.40;;;-2.14;87.84;99587.91;5026521;28;130096;-76
2022/01/26 07:08:37;;;;;;;19.40;8.10;;;-2.70;21.10;;;-2.23;86.81;99584.75;5029356;28;129419;-76
2022/01/26 07:11:05;;;;;;;25.08;14.02;;;-2.80;19.50;;;-2.23;87.45;99580.25;5026631;28;119701;-76
2022/01/26 07:13:34;;;;;;;29.30;13.57;;;-2.70;19.90;;;-1.86;86.50;99585.44;5025476;28;115643;-77
2022/01/26 07:21:38;;;;;;;18.33;8.67;;;-2.40;21.20;;;-1.19;83.95;99579.03;5024980;28;118937;-76
2022/01/26 07:24:07;;;;;;;19.13;9.85;;;-2.30;20.20;;;-1.70;83.36;99577.84;5028586;28;115636;-76
2022/01/26 07:26:37;;;;;;;17.80;10.68;;;-2.40;9.60;;;-1.58;84.52;99577.88;5025980;28;130204;-76
2022/01/26 07:29:11;;;;;;;23.17;12.50;;;-2.40;14.10;;;-1.18;83.67;99579.88;5010922;28;129338;-76
2022/01/26 07:31:42;;;;;;;14.38;7.20;;;-2.20;15.40;;;-2.02;84.12;99580.78;5026053;28;118824;-75
2022/01/26 07:34:12;;;;;;;8.60;3.67;;;-2.50;7.00;;;-2.11;84.98;99576.81;5025461;28;114974;-77
2022/01/26 07:36:43;;;;;;;11.15;4.90;;;-2.50;7.10;;;-1.64;84.78;99576.94;5025249;27;130119;-77
2022/01/26 07:39:17;;;;;;;15.63;8.88;;;-2.30;11.30;;;-1.11;83.03;99581.38;5007876;28;129643;-75
2022/01/26 07:41:46;;;;;;;15.15;8.20;;;-2.10;11.90;;;-0.78;81.73;99579.94;5007763;28;118149;-76
2022/01/26 07:44:14;;;;;;;14.00;6.70;;;-1.90;9.60;;;-0.46;79.95;99579.50;5007840;28;114152;-75
2022/01/26 07:46:46;;;;;;;17.88;8.68;;;-1.70;6.20;;;-0.57;78.92;99585.69;5005479;28;130128;-76
2022/01/26 07:49:15;;;;;;;17.77;10.00;;;-1.80;1.70;;;-0.61;78.96;99584.53;5007568;28;128818;-76
2022/01/26 07:51:44;;;;;;;21.70;9.90;;;-1.90;1.60;;;-0.27;78.42;99582.00;5007060;28;119239;-76
2022/01/26 07:54:12;;;;;;;36.20;17.50;;;-1.70;2.40;;;-0.17;77.94;99578.72;5005482;28;115377;-76
2022/01/26 07:56:43;;;;;;;24.00;11.60;;;-1.60;1.00;;;-0.53;78.07;99581.53;5004541;28;129924;-75
2022/01/26 07:59:11;;;;;;;21.58;11.52;;;-1.70;1.00;;;-0.80;79.27;99582.03;5004226;28;129653;-75
2022/01/26 08:01:39;;;;;;;26.98;16.13;;;-1.90;1.00;;;-0.47;79.27;99583.22;5005991;28;118887;-72
2022/01/26 08:04:09;;;;;;;17.27;8.60;;;-1.70;2.40;;;-0.20;77.87;99585.34;5020386;28;116482;-75
2022/01/26 08:06:39;;;;;;;10.15;4.80;;;-1.50;1.00;;;-1.25;77.83;99589.81;5023181;28;129754;-75
2022/01/26 08:09:07;;;;;;;14.57;6.13;;;-1.90;1.00;;;-1.42;79.99;99589.69;5023682;28;129716;-71
2022/01/26 08:11:35;;;;;;;9.23;4.25;;;-2.00;1.00;;;-1.10;79.27;99582.19;5023925;27;119087;-74
2022/01/26 08:14:04;;;;;;;9.93;4.18;;;-1.90;1.00;;;-1.70;80.39;99585.81;5025979;28;115525;-75
2022/01/26 08:16:33;;;;;;;13.38;5.22;;;-2.00;1.00;;;-1.02;80.19;99586.34;5025070;28;130360;-79
2022/01/26 08:19:02;;;;;;;10.18;4.93;;;-1.80;1.00;;;-1.12;79.13;99597.59;5023971;28;129981;-77
2022/01/26 08:21:32;;;;;;;15.82;7.32;;;-1.70;1.00;;;-0.65;78.23;99599.41;5025682;28;118349;-76
2022/01/26 08:24:04;;;;;;;10.75;5.00;;;-1.70;1.00;;;-1.45;79.54;99602.44;5025623;28;115057;-75
2022/01/26 08:26:39;;;;;;;12.15;5.47;;;-2.00;1.00;;;-1.33;79.75;99601.63;5023383;28;130042;-73
2022/01/26 08:29:14;;;;;;;12.07;6.13;;;-1.90;1.00;;;-0.96;80.19;99593.41;5026196;28;129155;-74
2022/01/26 08:31:43;;;;;;;13.45;6.70;;;-1.80;1.00;;;-0.36;78.37;99589.56;5021574;28;118870;-72
2022/01/26 08:34:12;;;;;;;11.30;6.80;;;-1.50;1.00;;;-1.01;79.03;99593.28;5007628;28;113967;-74
2022/01/26 08:36:42;;;;;;;9.07;4.40;;;-1.70;1.00;;;-1.56;80.36;99592.56;5022057;28;130079;-71
2022/01/26 08:39:10;;;;;;;4.68;1.95;;;-2.00;1.00;;;-1.85;81.10;99589.75;5022088;28;130456;-70
2022/01/26 08:41:39;;;;;;;9.90;3.75;;;-2.20;1.00;;;-1.62;81.04;99593.50;5022295;28;118988;-73
2022/01/26 08:44:08;;;;;;;8.18;3.70;;;-2.10;1.00;;;-1.54;80.50;99597.66;5025112;28;115085;-74
2022/01/26 08:46:37;;;;;;;8.43;2.92;;;-2.00;1.00;;;-1.68;80.11;99597.06;5020995;28;130639;-72
2022/01/26 08:49:07;;;;;;;6.30;2.30;;;-2.10;1.00;;;-2.03;82.07;99592.44;5021721;27;129793;-72
2022/01/26 08:51:36;;;;;;;9.07;4.28;;;-2.20;1.00;;;-1.51;81.43;99592.69;5022763;28;118864;-73
2022/01/26 08:54:08;;;;;;;12.68;5.78;;;-2.00;1.00;;;-1.06;78.55;99594.00;5024109;28;114120;-73
2022/01/26 08:56:37;;;;;;;10.40;4.65;;;-1.80;1.00;;;-1.34;77.86;99592.00;5024985;28;130417;-72
2022/01/26 08:59:06;;;;;;;10.27;3.10;;;-2.00;1.00;;;-1.31;78.96;99591.53;5024861;28;129671;-72
2022/01/26 09:01:34;;;;;;;6.53;2.35;;;-2.00;1.00;;;-1.91;80.46;99585.31;5022727;28;118851;-72
2022/01/26 09:04:03;;;;;;;5.25;2.08;;;-2.10;1.00;;;-1.72;79.67;99596.69;5022394;28;115984;-72
2022/01/26 09:06:33;;;;;;;9.65;3.25;;;-2.00;1.00;;;-1.85;80.89;99592.41;5023731;28;129715;-71
2022/01/26 09:09:06;;;;;;;4.20;2.30;;;-2.00;1.00;;;-1.88;81.17;99592.06;5021892;28;130539;-72
2022/01/26 09:11:39;;;;;;;7.70;3.80;;;-2.10;1.00;;;-1.49;80.92;99582.63;5024292;28;118466;-72
2022/01/26 09:14:10;;;;;;;5.90;2.65;;;-2.00;1.00;;;-1.42;79.54;99584.38;5022400;28;115022;-73
2022/01/26 09:16:39;;;;;;;8.52;2.50;;;-2.00;1.00;;;-2.00;81.18;99584.81;5021993;28;129722;-72
2022/01/26 09:19:13;;;;;;;6.40;2.70;;;-2.10;1.00;;;-1.82;80.38;99572.53;5024723;28;129979;-72
2022/01/26 09:21:41;;;;;;;9.15;4.30;;;-2.10;1.00;;;-1.41;79.20;99576.16;5022413;28;120264;-72
2022/01/26 09:24:10;;;;;;;10.90;2.38;;;-1.90;1.00;;;-1.73;78.76;99586.28;5024363;28;114284;-72
2022/01/26 09:26:40;;;;;;;9.88;4.10;;;-2.00;1.00;;;-1.64;79.62;99571.59;5023702;28;129887;-72
2022/01/26 09:29:09;;;;;;;4.78;2.13;;;-2.00;1.00;;;-1.32;78.08;99585.41;5023877;28;128765;-72
2022/01/26 09:31:38;;;;;;;8.32;2.45;;;-1.90;1.00;;;-1.53;78.13;99572.66;5022214;28;118914;-72
2022/01/26 09:34:06;;;;;;;6.28;2.40;;;-1.90;1.00;;;-0.65;76.34;99583.41;5024834;28;114995;-72
2022/01/26 09:36:35;;;;;;;11.27;3.85;;;-1.60;1.00;;;-1.08;76.80;99577.41;5020534;28;129708;-72
2022/01/26 09:39:04;;;;;;;5.60;2.80;;;-1.80;1.00;;;-1.40;77.12;99568.97;5021231;28;129966;-72
2022/01/26 09:41:32;;;;;;;8.23;4.45;;;-1.90;1.00;;;-1.06;77.11;99571.88;5022996;28;118826;-72
2022/01/26 09:44:04;;;;;;;7.07;3.15;;;-1.80;1.00;;;-0.85;75.47;99568.59;5024155;28;114925;-73
2022/01/26 09:46:33;;;;;;;10.70;4.10;;;-1.70;1.00;;;-0.06;73.77;99560.00;5024173;28;129873;-71
2022/01/26 09:49:02;;;;;;;11.70;5.25;;;-1.40;1.00;;;-0.12;73.25;99560.94;5021972;28;129896;-73
2022/01/26 09:51:32;;;;;;;9.38;4.40;;;-1.40;1.00;;;-0.45;73.15;99562.47;5021475;28;118646;-72
2022/01/26 09:54:04;;;;;;;6.55;2.28;;;-1.50;1.00;;;-1.16;74.86;99557.28;5022037;28;116251;-72
2022/01/26 09:56:33;;;;;;;7.50;2.83;;;-1.80;1.00;;;-1.06;75.18;99550.56;5021331;28;129831;-71
2022/01/26 09:59:03;;;;;;;15.40;6.78;;;-1.70;1.00;;;-0.09;73.46;99547.13;5023808;28;130484;-72
2022/01/26 10:01:42;;;;;;;6.55;3.47;;;-1.40;1.00;;;-0.27;72.71;99544.66;5023357;27;119095;-72
2022/01/26 10:04:28;;;;;;;13.80;5.32;;;-1.50;1.00;;;-0.95;74.52;99547.06;5027379;28;114970;-72
2022/01/26 10:07:15;;;;;;;11.23;4.72;;;-1.70;1.00;;;-0.63;73.39;99543.97;5026405;28;129913;-78
2022/01/26 10:10:03;;;;;;;11.93;5.28;;;-1.60;1.00;;;0.13;72.46;99546.44;5006543;28;129616;-74
2022/01/26 10:15:46;;;;;;;12.45;5.25;;;-0.90;1.00;;;0.50;68.25;99535.28;5006640;28;114608;-75
2022/01/26 10:18:17;;;;;;;19.23;7.78;;;-0.90;1.00;;;1.40;67.93;99533.28;5008046;28;129947;-75
2022/01/26 10:20:49;;;;;;;10.02;4.75;;;-0.70;1.00;;;0.04;68.90;99531.88;5004974;28;129848;-76
2022/01/26 10:23:20;;;;;;;10.50;2.92;;;-1.30;1.00;;;0.74;68.54;99525.19;5004657;28;120025;-71
2022/01/26 10:26:01;;;;;;;7.28;3.25;;;-1.00;1.00;;;0.77;67.97;99529.25;5024415;28;115591;-71
2022/01/26 10:28:45;;;;;;;12.73;5.22;;;-0.90;1.00;;;1.22;66.89;99539.72;5024311;28;130241;-72
2022/01/26 10:31:20;;;;;;;7.05;2.85;;;-0.70;1.00;;;0.08;68.27;99533.00;5023539;28;130081;-72
2022/01/26 10:33:57;;;;;;;8.95;2.72;;;-1.30;1.00;;;-0.08;70.15;99538.09;5024965;28;119081;-72
2022/01/26 10:36:27;;;;;;;7.82;2.55;;;-1.30;1.00;;;0.47;70.80;99525.09;5026967;28;115488;-72
2022/01/26 10:39:01;;;;;;;5.32;2.28;;;-1.10;1.00;;;0.73;67.39;99538.81;5023915;28;130601;-71
2022/01/26 10:41:30;;;;;;;4.15;2.15;;;-0.90;1.00;;;0.98;67.46;99544.53;5025963;28;130068;-72
2022/01/26 10:44:01;;;;;;;3.65;1.95;;;-0.80;1.00;;;0.36;69.13;99540.16;5024230;28;119078;-72
2022/01/26 10:46:35;;;;;;;5.55;3.00;;;-1.20;1.00;;;0.60;68.09;99535.41;5024654;28;115826;-71
2022/01/26 10:49:14;;;;;;;8.95;4.30;;;-0.90;1.00;;;1.13;67.50;99527.06;5026325;27;130542;-73
2022/01/26 10:51:59;;;;;;;9.20;4.30;;;-0.60;1.00;;;0.61;67.58;99537.03;5023890;28;130576;-72
2022/01/26 10:54:37;;;;;;;9.52;3.33;;;-0.90;1.00;;;0.32;68.88;99539.78;5024685;28;119532;-72
2022/01/26 10:57:08;;;;;;;10.90;4.47;;;-1.00;1.00;;;0.11;70.22;99535.16;5024888;28;115163;-71
2022/01/26 10:59:40;;;;;;;13.20;5.03;;;-1.00;1.00;;;-0.06;71.28;99522.63;5023857;28;129965;-72
2022/01/26 11:02:13;;;;;;;23.50;9.73;;;-1.10;1.00;;;0.13;69.99;99525.09;5025718;28;131053;-72
2022/01/26 11:04:44;;;;;;;13.55;6.10;;;-1.10;1.00;;;-0.28;70.97;99524.38;5023878;28;119273;-71
2022/01/26 11:07:15;;;;;;;8.43;3.28;;;-1.20;1.00;;;-0.04;71.25;99522.41;5024483;28;115619;-72
2022/01/26 11:09:47;;;;;;;7.65;2.85;;;-1.10;1.00;;;0.41;69.83;99518.06;5025419;28;128929;-72
2022/01/26 11:12:27;;;;;;;12.95;4.90;;;-1.00;1.00;;;0.35;69.68;99517.94;5024229;27;130164;-72
2022/01/26 11:15:04;;;;;;;5.88;3.33;;;-1.00;1.00;;;0.34;69.68;99521.69;5024124;28;119741;-72
2022/01/26 11:17:37;;;;;;;10.45;4.70;;;-1.10;1.00;;;0.13;69.75;99514.41;5026124;28;114954;-72
2022/01/26 11:20:19;;;;;;;7.10;3.10;;;-1.10;1.00;;;0.52;68.94;99512.59;5023843;28;130040;-71
2022/01/26 11:22:53;;;;;;;12.23;4.47;;;-1.00;1.00;;;1.00;68.65;99501.50;5027083;28;129733;-71
2022/01/26 11:25:23;;;;;;;8.52;4.28;;;-0.70;1.00;;;1.20;65.94;99495.56;5023977;28;118915;-73
2022/01/26 11:27:54;;;;;;;12.73;5.40;;;-0.60;1.00;;;1.38;66.25;99497.13;5024448;28;114618;-71
2022/01/26 11:30:28;;;;;;;11.32;5.95;;;-0.50;1.00;;;0.71;66.80;99489.09;5025717;28;129854;-72
2022/01/26 11:33:00;;;;;;;8.15;3.75;;;-0.80;1.00;;;0.49;67.59;99477.56;5008646;28;128561;-73
2022/01/26 11:35:32;;;;;;;12.02;4.70;;;-1.00;1.00;;;0.99;67.49;99479.31;5024173;28;118829;-73
2022/01/26 11:38:11;;;;;;;11.15;3.63;;;-0.90;1.00;;;1.17;66.25;99474.69;5025033;28;115924;-72
2022/01/26 11:46:30;;;;;;;11.00;6.32;;;-0.80;1.00;;;1.27;65.71;99474.03;5003317;28;119589;-73
2022/01/26 11:49:08;;;;;;;12.15;4.85;;;-0.80;1.00;;;1.28;65.31;99471.09;5010679;28;115838;-73
2022/01/26 11:51:45;;;;;;;7.35;3.00;;;-0.70;1.00;;;1.47;64.92;99470.75;5021798;28;130079;-73